Surface observations / Quebec / CYHU (71371)

Quebec | Canada | USA | France | UK | Europe | Elsewhere

Display: Info & Location for CYHU (71371) | Help decoding METAR

CYHU MONTREAL/ST HUBERT A QB CN
Raw surface observations for station CYHU
CYHU 070800Z AUTO 23013G20KT 9SM -RA BKN043 OVC055 00/M02 A3002 RMK SLP168=
CYHU 070756Z AUTO 23014G20KT 9SM -RA BKN041 BKN049 OVC055 00/M02 A3002 RMK SLP168=
CYHU 070703Z AUTO 22016G21KT 9SM SCT019 OVC045 00/M02 A3001 RMK SLP166=
CYHU 070700Z AUTO 23016G25KT 9SM -SN SCT019 OVC043 01/M02 A3001 RMK SLP166=
CYHU 070654Z AUTO 24017G25KT 9SM -SN SCT019 SCT024 OVC043 01/M02 A3001 RMK SLP165=
CYHU 070636Z AUTO 23017G23KT 6SM -SN BKN022 OVC041 00/M02 A3001 RMK SLP166=
CYHU 070629Z AUTO 23019G25KT 7SM -SN SCT022 OVC043 00/M02 A3001 RMK SLP165=
CYHU 070623Z AUTO 23017G22KT 9SM -SN -UP FEW022 OVC043 01/M02 A3001 RMK SLP164=
CYHU 070617Z AUTO 23016G21KT 9SM -RA -UP OVC043 01/M02 A3001 RMK SLP164=
CYHU 070614Z AUTO 22014G21KT 9SM -RA OVC043 01/M02 A3001 RMK SLP164=
CYHU 070600Z AUTO 23018G24KT 9SM BKN043 OVC055 01/M02 A3000 RMK SLP163=
CYHU 070500Z AUTO 23019KT 9SM FEW026 BKN075 OVC087 01/M03 A3001 RMK SLP166=
CYHU 070400Z AUTO 24017G25KT 9SM SCT031 BKN055 OVC078 01/M03 A3002 RMK SLP170=
CYHU 070300Z AUTO 22015G22KT 9SM FEW055 OVC100 01/M03 A3004 RMK SLP174=
CYHU 070200Z AUTO 22015G22KT 9SM OVC110 00/M03 A3005 RMK SLP178=
CYHU 070100Z AUTO 21010G15KT 9SM BKN080 OVC120 00/M03 A3006 RMK SLP181=
CYHU 070000Z AUTO 20010KT 9SM FEW085 OVC120 00/M01 A3006 RMK SLP183=
CYHU 062225Z AUTO 20008KT 9SM SCT014 SCT019 BKN026 OVC130 M00/M01 A3007 RMK SLP185=
CYHU 062224Z AUTO 20008KT 9SM SCT014 BKN022 BKN035 OVC130 M00/M01 A3007 RMK SLP185=
CYHU 062221Z AUTO 20008KT 8SM SCT014 SCT019 BKN027 OVC035 M00/M00 A3007 RMK SLP186=
CYHU 062217Z AUTO 20008KT 8SM SCT014 BKN019 BKN027 OVC035 M00/M00 A3007 RMK SLP186=
CYHU 062207Z AUTO 20008KT 6SM -SN FEW010 OVC016 M00/M00 A3007 RMK SLP186=
CYHU 062202Z AUTO 20009KT 3SM -SN BKN013 OVC019 M00/M00 A3007 RMK SLP186=
CYHU 062200Z AUTO 20008KT 2 1/4SM -SN FEW009 BKN013 OVC027 M00/M00 A3007 RMK SLP186=
CYHU 062159Z AUTO 20008KT 2SM -SN FEW009 OVC013 M00/M00 A3007 RMK SLP186=
CYHU 062152Z AUTO 20008KT 1 3/4SM -SN FEW009 BKN015 BKN019 OVC027 M00/M00 A3007 RMK SLP186=
CYHU 062149Z AUTO 20007KT 2 1/2SM -SN FEW010 BKN015 OVC027 M00/M00 A3007 RMK SLP186=
CYHU 062117Z AUTO 20006KT 3SM -SN SCT008 BKN017 OVC043 M01/M01 A3007 RMK SLP186=
CYHU 062112Z AUTO 20006KT 2 1/2SM -SN SCT008 OVC017 M01/M01 A3007 RMK SLP186=
CYHU 062103Z AUTO 20006KT 2 1/2SM -SN BKN008 OVC017 M01/M01 A3007 RMK VIS VRB 1 3/4-3 SLP187=
CYHU 062100Z AUTO 21007KT 2SM -SN SCT008 OVC017 M01/M01 A3007 RMK VIS VRB 1 1/2-3 SLP187=
CYHU 062053Z AUTO 20006KT 2SM -SN SCT008 OVC017 M01/M01 A3007 RMK VIS VRB 1 1/2-2 1/2 SLP187=
CYHU 062046Z AUTO 21006KT 2SM -SN BKN008 OVC017 M01/M01 A3008 RMK SLP188=
CYHU 062037Z AUTO 21007KT 2SM -SN SCT008 OVC017 M01/M01 A3008 RMK SLP188=
CYHU 062000Z AUTO 19007KT 2 1/2SM -SN BKN006 M01/M01 A3008 RMK VIS VRB 1 1/2-3 SLP189=
CYHU 061954Z AUTO 20006KT 2 1/2SM -SN BKN009 OVC021 M00/M01 A3008 RMK VIS VRB 1 3/4-3 SLP189=
CYHU 061940Z AUTO 21008KT 3SM -SN BKN007 OVC028 M01/M01 A3008 RMK SLP189=
CYHU 061920Z AUTO 21007KT 2 1/4SM -SN BKN007 BKN023 OVC029 M01/M01 A3008 RMK VIS VRB 1 1/2-3 SLP190=
CYHU 061900Z AUTO 22006KT 1 3/4SM -SN BKN007 OVC022 M01/M01 A3009 RMK SLP191=
CYHU 061835Z AUTO 20006KT 1 3/4SM -SN OVC007 M01/M01 A3010 RMK SLP194=
CYHU 061801Z AUTO 21003KT 2 1/4SM -SN OVC007 M01/M02 A3011 RMK SLP199=
CYHU 061800Z AUTO 21002KT 3SM -SN OVC007 M01/M02 A3011 RMK SLP199=
CYHU 061747Z AUTO 20004KT 3SM -SN BKN007 OVC012 M01/M02 A3012 RMK SLP201=
CYHU 061736Z AUTO 18004KT 2 1/2SM -SN BKN009 OVC014 M01/M02 A3013 RMK VIS VRB 1 3/4-3 SLP204=
CYHU 061727Z AUTO 17004KT 4SM -SN BKN009 OVC014 M01/M02 A3013 RMK SLP205=
CYHU 061726Z AUTO 16005KT 4SM -SN SCT009 OVC014 M01/M02 A3013 RMK SLP205=
CYHU 061724Z AUTO 17004KT 4SM -SN BKN009 OVC014 M01/M02 A3013 RMK SLP206=
CYHU 061722Z AUTO 17004KT 4SM -SN SCT009 OVC014 M01/M02 A3013 RMK SLP206=
CYHU 061720Z AUTO 17005KT 3SM -SN BKN009 OVC014 M01/M02 A3013 RMK SLP206=
CYHU 061719Z AUTO 18005KT 3SM -SN SCT009 OVC014 M01/M02 A3013 RMK SLP207=
CYHU 061718Z AUTO 18005KT 3SM -SN BKN009 OVC014 M01/M02 A3013 RMK SLP207=
CYHU 061715Z AUTO 19004KT 2SM -SN BKN009 OVC014 M01/M02 A3013 RMK SLP207=
CYHU 061701Z AUTO 19002KT 1 3/4SM -SN OVC011 M02/M02 A3014 RMK SLP210=
CYHU 061700Z AUTO 19003KT 1 3/4SM -SN BKN009 OVC014 M02/M02 A3014 RMK SLP210=
CYHU 061659Z AUTO 19003KT 2SM -SN BKN009 OVC014 M02/M02 A3014 RMK SLP210=
CYHU 061654Z AUTO 19003KT 3SM -SN SCT009 OVC014 M02/M02 A3015 RMK SLP211=
CYHU 061645Z AUTO 19005KT 2 1/4SM -SN FEW008 BKN013 OVC018 M02/M02 A3015 RMK VIS VRB 1 1/4-3 SLP213=
CYHU 061643Z AUTO 19005KT 3SM -SN FEW008 BKN013 OVC021 M02/M02 A3015 RMK SLP214=
CYHU 061639Z AUTO 19005KT 5SM -SN BKN008 BKN015 OVC021 M02/M02 A3016 RMK SLP215=
CYHU 061627Z AUTO 18005KT 7SM -SN BKN008 BKN012 OVC020 M02/M02 A3016 RMK SLP216=
CYHU 061623Z AUTO 18005KT 4SM -SN FEW008 BKN012 OVC020 M02/M02 A3016 RMK SLP217=
CYHU 061621Z AUTO 18006KT 3SM -SN BKN008 OVC020 M02/M02 A3016 RMK SLP217=
CYHU 061606Z AUTO 21006KT 2SM -SN BKN008 OVC016 M02/M02 A3017 RMK VIS VRB 1 1/2-3 SLP220=
CYHU 061600Z AUTO 19004KT 1 1/4SM -SN BKN008 OVC016 M02/M02 A3018 RMK SLP221=
CYHU 061526Z AUTO 19005KT 1 3/4SM -SN BKN008 BKN021 OVC033 M02/M02 A3019 RMK SLP225=
CYHU 061514Z AUTO 19005KT 2 1/2SM -SN BKN008 BKN015 BKN029 OVC035 M02/M03 A3019 RMK SLP227=
CYHU 061510Z AUTO 19004KT 2 1/4SM -SN SCT008 BKN015 OVC035 M02/M03 A3020 RMK SLP228=
CYHU 061502Z AUTO 19004KT 2 1/4SM -SN FEW008 SCT015 BKN026 OVC037 M02/M03 A3020 RMK SLP229=
CYHU 061450Z AUTO 22005KT 3SM -SN FEW008 BKN026 OVC037 M02/M03 A3020 RMK SLP230=
CYHU 061433Z AUTO 21006KT 2 1/4SM -SN BKN030 BKN035 OVC050 M02/M03 A3020 RMK SLP230=
CYHU 061417Z AUTO 20006KT 5SM -SN FEW037 BKN044 OVC050 M02/M03 A3020 RMK SLP230=
CYHU 061400Z AUTO 21006KT 6SM -SN BKN037 OVC049 M03/M04 A3020 RMK SLP230=
CYHU 061325Z AUTO 22005KT 5SM -SN OVC033 M03/M05 A3021 RMK SLP232=
CYHU 061300Z AUTO 24005KT 9SM -SN OVC050 M03/M06 A3021 RMK SLP233=
CYHU 061249Z AUTO 24006KT 9SM -SN BKN055 OVC065 M03/M06 A3021 RMK SLP233=
CYHU 061200Z AUTO 21005KT 9SM BKN065 OVC080 M03/M07 A3020 RMK SLP231=
CYHU 061100Z AUTO 25006KT 9SM OVC080 M03/M07 A3020 RMK SLP229=
CYHU 061000Z AUTO 28010KT 230V300 9SM SCT029 OVC075 M03/M07 A3019 RMK SLP227=
CYHU 060900Z AUTO 17005KT 9SM OVC080 M05/M08 A3018 RMK SLP224=
CYHU 060800Z AUTO 18004KT 9SM OVC080 M05/M09 A3019 RMK SLP226=